createdAt,value
2023-01-05T00:02:45.958Z,100466.72
2023-01-05T00:05:49.655Z,100471.13
2023-01-05T00:08:53.605Z,100464.13
2023-01-05T00:12:15.851Z,100465.31
2023-01-05T00:15:37.047Z,100455.97
2023-01-05T00:18:58.269Z,100465.75
2023-01-05T00:22:19.438Z,100468.88
2023-01-05T00:25:25.387Z,100462.25
2023-01-05T00:28:30.633Z,100456.88
2023-01-05T00:31:34.432Z,100459.53
2023-01-05T00:34:38.337Z,100455.31
2023-01-05T00:37:42.455Z,100451.94
2023-01-05T00:40:46.252Z,100447.59
2023-01-05T00:43:51.474Z,100458.47
2023-01-05T00:46:55.462Z,100465.84
2023-01-05T00:49:59.248Z,100457.19
2023-01-05T00:53:03.018Z,100452.63
2023-01-05T00:56:06.762Z,100443.78
2023-01-05T00:59:12.612Z,100441.63
2023-01-05T01:02:16.757Z,100448.72
2023-01-05T01:05:20.717Z,100442.22
2023-01-05T01:08:24.378Z,100440.38
2023-01-05T01:11:28.007Z,100439.84
2023-01-05T01:14:33.108Z,100433.91
2023-01-05T01:17:36.926Z,100425.59
2023-01-05T01:20:40.780Z,100424.03
2023-01-05T01:23:44.972Z,100426.97
2023-01-05T01:26:49.747Z,100420.25
2023-01-05T01:29:54.778Z,100419.13
2023-01-05T01:32:58.435Z,100414.56
2023-01-05T01:36:05.722Z,100403.66
2023-01-05T01:39:09.841Z,100405.69
2023-01-05T01:42:17.075Z,100396.41
2023-01-05T01:45:25.437Z,100392.72
2023-01-05T01:48:29.260Z,100382.41
2023-01-05T01:51:37.401Z,100382.78
2023-01-05T01:54:41.334Z,100384.03
2023-01-05T01:57:46.646Z,100375.53
2023-01-05T02:00:51.886Z,100376.25
2023-01-05T02:03:56.704Z,100368.94
2023-01-05T02:07:01.302Z,100368.63
2023-01-05T02:10:06.532Z,100367.97
2023-01-05T02:13:31.231Z,100365.34
2023-01-05T02:16:48.384Z,100359.56
2023-01-05T02:20:36.906Z,100355.13
2023-01-05T02:24:12.723Z,100349.72
2023-01-05T02:27:45.320Z,100350.44
2023-01-05T02:31:01.882Z,100355.31
2023-01-05T02:34:23.439Z,100352.50
2023-01-05T02:37:37.840Z,100354.44
2023-01-05T02:40:47.071Z,100354.47
2023-01-05T02:43:51.481Z,100348.50
2023-01-05T02:47:05.176Z,100351.13
2023-01-05T02:50:14.452Z,100346.00
2023-01-05T02:53:23.794Z,100338.81
2023-01-05T02:56:32.169Z,100342.81
2023-01-05T02:59:38.793Z,100341.78
2023-01-05T03:02:48.679Z,100333.28
2023-01-05T03:05:57.883Z,100330.69
2023-01-05T03:09:05.604Z,100327.25
2023-01-05T03:12:32.867Z,100321.16
2023-01-05T03:15:39.587Z,100323.50
2023-01-05T03:19:03.877Z,100319.81
2023-01-05T03:22:30.481Z,100307.13
2023-01-05T03:25:56.308Z,100298.94
2023-01-05T03:29:19.687Z,100297.94
2023-01-05T03:32:45.800Z,100304.59
2023-01-05T03:35:56.668Z,100305.09
2023-01-05T03:39:03.444Z,100309.56
2023-01-05T03:42:12.476Z,100307.25
2023-01-05T03:45:19.365Z,100304.78
2023-01-05T03:48:27.121Z,100309.00
2023-01-05T03:51:37.735Z,100301.03
2023-01-05T03:54:45.039Z,100299.53
2023-01-05T03:57:48.679Z,100291.94
2023-01-05T04:00:53.076Z,100289.50
2023-01-05T04:03:59.095Z,100293.56
2023-01-05T04:07:04.221Z,100285.44
2023-01-05T04:10:11.141Z,100290.59
2023-01-05T04:13:15.528Z,100285.38
2023-01-05T04:16:20.499Z,100284.34
2023-01-05T04:19:26.380Z,100277.75
2023-01-05T04:22:33.331Z,100272.88
2023-01-05T04:25:37.394Z,100267.66
2023-01-05T04:28:51.760Z,100260.97
2023-01-05T04:31:59.937Z,100262.81
2023-01-05T04:35:10.671Z,100271.25
2023-01-05T04:38:17.766Z,100272.84
2023-01-05T04:41:21.559Z,100269.97
2023-01-05T04:44:28.082Z,100266.41
2023-01-05T04:47:33.034Z,100259.47
2023-01-05T04:50:37.117Z,100265.84
2023-01-05T04:53:44.330Z,100260.28
2023-01-05T04:56:52.235Z,100257.59
2023-01-05T04:59:56.169Z,100257.56
2023-01-05T05:03:04.587Z,100248.00
2023-01-05T05:06:09.731Z,100245.41
2023-01-05T05:09:16.715Z,100250.41
2023-01-05T05:12:21.259Z,100249.91
2023-01-05T05:15:28.197Z,100246.91
2023-01-05T05:18:32.239Z,100254.31
2023-01-05T05:21:37.495Z,100251.63
2023-01-05T05:24:43.446Z,100247.69
2023-01-05T05:27:47.457Z,100243.69
2023-01-05T05:30:51.620Z,100244.00
2023-01-05T05:33:55.530Z,100231.75
2023-01-05T05:36:59.231Z,100243.59
2023-01-05T05:40:04.559Z,100236.72
2023-01-05T05:43:08.505Z,100225.44
2023-01-05T05:46:12.336Z,100233.28
2023-01-05T05:49:16.157Z,100225.97
2023-01-05T05:52:19.924Z,100224.56
2023-01-05T05:55:25.159Z,100230.09
2023-01-05T05:58:28.946Z,100226.69
2023-01-05T06:01:32.931Z,100234.81
2023-01-05T06:04:36.995Z,100229.94
2023-01-05T06:07:40.945Z,100237.72
2023-01-05T06:10:46.325Z,100241.31
2023-01-05T06:13:50.253Z,100239.53
2023-01-05T06:16:53.980Z,100239.16
2023-01-05T06:19:57.675Z,100238.34
2023-01-05T06:23:01.519Z,100248.03
2023-01-05T06:26:07.034Z,100241.41
2023-01-05T06:29:10.802Z,100243.22
2023-01-05T06:32:14.528Z,100239.72
2023-01-05T06:35:18.595Z,100236.59
2023-01-05T06:38:22.475Z,100240.38
2023-01-05T06:41:27.643Z,100237.34
2023-01-05T06:44:31.464Z,100231.59
2023-01-05T06:47:35.515Z,100235.31
2023-01-05T06:50:39.373Z,100231.19
2023-01-05T06:53:43.107Z,100216.97
2023-01-05T06:56:48.367Z,100219.16
2023-01-05T06:59:52.194Z,100207.94
2023-01-05T07:02:55.897Z,100214.59
2023-01-05T07:05:59.705Z,100216.88
2023-01-05T07:09:03.750Z,100217.72
2023-01-05T07:12:09.897Z,100218.72
2023-01-05T07:15:13.728Z,100207.81
2023-01-05T07:18:17.545Z,100190.91
2023-01-05T07:21:21.663Z,100193.53
2023-01-05T07:24:25.423Z,100191.06
2023-01-05T07:27:30.764Z,100186.59
2023-01-05T07:30:34.594Z,100183.13
2023-01-05T07:33:40.285Z,100177.97
2023-01-05T07:36:44.295Z,100177.78
2023-01-05T07:39:47.981Z,100172.41
2023-01-05T07:42:54.565Z,100163.53
2023-01-05T07:46:01.848Z,100160.94
2023-01-05T07:49:05.923Z,100159.56
2023-01-05T07:52:09.746Z,100153.41
2023-01-05T07:55:14.142Z,100159.78
2023-01-05T07:58:19.288Z,100153.25
2023-01-05T08:01:23.243Z,100161.44
2023-01-05T08:04:27.186Z,100152.44
2023-01-05T08:07:30.975Z,100150.53
2023-01-05T08:10:34.847Z,100150.59
2023-01-05T08:13:57.548Z,100141.34
2023-01-05T08:17:01.660Z,100140.63
2023-01-05T08:20:05.927Z,100137.09
2023-01-05T08:23:09.736Z,100125.91
2023-01-05T08:26:15.979Z,100123.19
2023-01-05T08:29:21.278Z,100129.41
2023-01-05T08:32:25.287Z,100121.88
2023-01-05T08:35:29.304Z,100113.03
2023-01-05T08:38:33.101Z,100101.84
2023-01-05T08:41:39.845Z,100095.59
2023-01-05T08:44:45.069Z,100088.69
2023-01-05T08:47:48.775Z,100078.13
2023-01-05T08:50:52.545Z,100065.31
2023-01-05T08:53:56.726Z,100068.25
2023-01-05T08:57:00.555Z,100071.53
2023-01-05T09:00:07.217Z,100060.41
2023-01-05T09:03:11.403Z,100057.50
2023-01-05T09:06:16.076Z,100055.16
2023-01-05T09:09:19.974Z,100040.78
2023-01-05T09:12:25.765Z,100047.03
2023-01-05T09:15:34.449Z,100040.78
2023-01-05T09:18:38.897Z,100028.91
2023-01-05T09:21:42.608Z,100026.75
2023-01-05T09:24:46.525Z,100015.50
2023-01-05T09:27:50.199Z,100014.28
2023-01-05T09:30:55.635Z,100006.13
2023-01-05T09:34:00.407Z,100000.34
2023-01-05T09:37:04.118Z,99995.31
2023-01-05T09:40:09.310Z,99985.28
2023-01-05T09:43:22.057Z,99986.22
2023-01-05T09:46:31.853Z,99974.66
2023-01-05T09:49:36.496Z,99959.59
2023-01-05T09:52:40.946Z,99955.84
2023-01-05T09:55:49.418Z,99944.47
2023-01-05T09:58:57.613Z,99944.53
2023-01-05T10:02:08.116Z,99924.44
2023-01-05T10:05:14.893Z,99921.31
2023-01-05T10:08:24.455Z,99904.50
2023-01-05T10:11:55.570Z,99892.78
2023-01-05T10:15:05.665Z,99884.59
2023-01-05T10:18:18.983Z,99889.13
2023-01-05T10:21:32.580Z,99867.69
2023-01-05T10:24:48.328Z,99867.06
2023-01-05T10:28:01.300Z,99858.94
2023-01-05T10:31:14.730Z,99853.63
2023-01-05T10:34:24.925Z,99852.34
2023-01-05T10:37:47.107Z,99848.97
2023-01-05T10:41:00.849Z,99838.13
2023-01-05T10:44:40.717Z,99833.09
2023-01-05T10:47:46.595Z,99820.34
2023-01-05T10:50:55.695Z,99812.16
2023-01-05T10:53:59.627Z,99802.53
2023-01-05T10:57:36.894Z,99810.81
2023-01-05T11:00:43.683Z,99803.69
2023-01-05T11:04:26.593Z,99799.03
2023-01-05T11:07:15.859Z,99789.50
2023-01-05T11:10:25.516Z,99782.97
2023-01-05T11:13:33.874Z,99772.97
2023-01-05T11:16:38.591Z,99776.16
2023-01-05T11:19:46.932Z,99779.25
2023-01-05T11:22:52.140Z,99766.75
2023-01-05T11:25:56.080Z,99767.78
2023-01-05T11:29:15.895Z,99750.41
2023-01-05T11:32:19.757Z,99746.28
2023-01-05T11:35:31.202Z,99746.13
2023-01-05T11:38:36.812Z,99733.16
2023-01-05T11:41:42.309Z,99725.38
2023-01-05T11:44:49.814Z,99725.63
2023-01-05T11:47:56.560Z,99728.25
2023-01-05T11:51:00.336Z,99735.53
2023-01-05T11:54:07.066Z,99720.91
2023-01-05T11:57:16.926Z,99717.69
2023-01-05T12:00:25.818Z,99713.06
2023-01-05T12:03:52.837Z,99712.41
2023-01-05T12:07:10.546Z,99704.03
2023-01-05T12:10:37.900Z,99686.31
2023-01-05T12:13:54.926Z,99700.69
2023-01-05T12:16:59.066Z,99697.19
2023-01-05T12:20:14.011Z,99693.50
2023-01-05T12:23:36.793Z,99679.56
2023-01-05T12:26:52.433Z,99686.44
2023-01-05T12:34:03.414Z,99678.25
2023-01-05T12:37:22.536Z,99672.28
2023-01-05T12:40:42.686Z,99667.88
2023-01-05T12:44:01.794Z,99664.88
2023-01-05T12:47:18.947Z,99652.56
2023-01-05T12:50:28.819Z,99649.19
2023-01-05T12:53:44.744Z,99657.22
2023-01-05T12:56:52.901Z,99661.84
2023-01-05T13:00:05.269Z,99656.75
2023-01-05T13:03:18.259Z,99656.81
2023-01-05T13:06:24.997Z,99658.69
2023-01-05T13:09:33.602Z,99649.09
2023-01-05T13:12:38.859Z,99653.28
2023-01-05T13:15:54.237Z,99658.44
2023-01-05T13:19:06.064Z,99654.38
2023-01-05T13:22:16.746Z,99659.66
2023-01-05T13:25:22.781Z,99662.19
2023-01-05T13:28:29.963Z,99665.66
2023-01-05T13:32:03.107Z,99658.00
2023-01-05T13:35:26.198Z,99658.88
2023-01-05T13:39:14.776Z,99651.81
2023-01-05T13:42:51.379Z,99642.53
2023-01-05T13:46:11.593Z,99631.19
2023-01-05T13:49:50.909Z,99628.56
2023-01-05T13:53:06.271Z,99623.53
2023-01-05T13:56:23.100Z,99625.91
2023-01-05T13:59:34.999Z,99633.88
2023-01-05T14:02:42.563Z,99629.97
2023-01-05T14:05:52.970Z,99628.50
2023-01-05T14:09:01.723Z,99626.75
2023-01-05T14:12:42.706Z,99626.66
2023-01-05T14:15:46.490Z,99618.09
2023-01-05T14:18:54.736Z,99619.19
2023-01-05T14:22:03.539Z,99623.00
2023-01-05T14:25:54.120Z,99620.34
2023-01-05T14:28:57.829Z,99607.59
2023-01-05T14:32:09.244Z,99605.41
2023-01-05T14:35:29.735Z,99607.34
2023-01-05T14:38:33.674Z,99610.22
2023-01-05T14:41:40.068Z,99605.38
2023-01-05T14:44:50.006Z,99604.31
2023-01-05T14:47:57.145Z,99605.56
2023-01-05T14:51:21.437Z,99605.63
2023-01-05T14:55:27.112Z,99601.13
2023-01-05T14:59:14.627Z,99592.94
2023-01-05T15:02:23.337Z,99601.19
2023-01-05T15:05:28.354Z,99604.81
2023-01-05T15:08:56.000Z,99602.84
2023-01-05T15:12:40.698Z,99594.63
2023-01-05T15:15:51.663Z,99602.63
2023-01-05T15:19:19.861Z,99602.31
2023-01-05T15:22:39.373Z,99604.28
2023-01-05T15:26:07.665Z,99602.78
2023-01-05T15:29:35.002Z,99603.28
2023-01-05T15:32:44.680Z,99595.13
2023-01-05T15:36:02.567Z,99595.75
2023-01-05T15:39:24.675Z,99596.81
2023-01-05T15:42:33.005Z,99603.72
2023-01-05T15:45:43.366Z,99608.00
2023-01-05T15:48:51.772Z,99603.09
2023-01-05T15:51:57.539Z,99598.81
2023-01-05T15:55:04.394Z,99593.22
2023-01-05T15:58:17.017Z,99607.66
2023-01-05T16:01:21.052Z,99606.84
2023-01-05T16:04:27.207Z,99609.81
2023-01-05T16:07:30.986Z,99599.97
2023-01-05T16:10:39.766Z,99597.09
2023-01-05T16:13:49.833Z,99592.50
2023-01-05T16:16:57.071Z,99591.03
2023-01-05T16:20:08.049Z,99594.16
2023-01-05T16:23:17.376Z,99593.47
2023-01-05T16:26:21.357Z,99600.88
2023-01-05T16:29:35.248Z,99598.19
2023-01-05T16:32:42.109Z,99597.09
2023-01-05T16:35:49.094Z,99601.19
2023-01-05T16:38:52.868Z,99605.47
2023-01-05T16:42:19.495Z,99608.72
2023-01-05T16:45:25.599Z,99608.09
2023-01-05T16:48:49.747Z,99603.69
2023-01-05T16:51:56.581Z,99610.06
2023-01-05T16:55:29.564Z,99609.41
2023-01-05T16:58:38.818Z,99612.38
2023-01-05T17:01:47.039Z,99607.59
2023-01-05T17:04:50.822Z,99603.84
2023-01-05T17:08:04.346Z,99605.31
2023-01-05T17:11:12.986Z,99612.16
2023-01-05T17:14:18.620Z,99617.94
2023-01-05T17:17:22.326Z,99616.66
2023-01-05T17:20:30.378Z,99612.28
2023-01-05T17:23:42.448Z,99619.16
2023-01-05T17:26:46.559Z,99612.84
2023-01-05T17:29:50.349Z,99603.56
2023-01-05T17:32:54.145Z,99619.59
2023-01-05T17:35:58.112Z,99612.84
2023-01-05T17:39:03.768Z,99610.81
2023-01-05T17:42:24.917Z,99619.09
2023-01-05T17:45:28.701Z,99617.25
2023-01-05T17:48:32.488Z,99611.69
2023-01-05T17:51:36.320Z,99609.13
2023-01-05T17:54:42.721Z,99617.19
2023-01-05T17:57:46.419Z,99618.75
2023-01-05T18:00:50.344Z,99613.31
2023-01-05T18:03:54.133Z,99609.94
2023-01-05T18:06:59.308Z,99614.09
2023-01-05T18:10:05.507Z,99609.50
2023-01-05T18:13:11.148Z,99606.00
2023-01-05T18:16:15.372Z,99605.91
2023-01-05T18:19:19.289Z,99605.53
2023-01-05T18:22:23.023Z,99600.50
2023-01-05T18:25:28.284Z,99597.56
2023-01-05T18:28:32.183Z,99610.56
2023-01-05T18:31:38.617Z,99609.25
2023-01-05T18:34:43.968Z,99603.28
2023-01-05T18:37:47.829Z,99600.06
2023-01-05T18:40:53.010Z,99612.56
2023-01-05T18:43:56.952Z,99609.94
2023-01-05T18:47:00.776Z,99606.66
2023-01-05T18:50:06.304Z,99602.75
2023-01-05T18:53:10.129Z,99609.50
2023-01-05T18:56:16.247Z,99605.38
2023-01-05T18:59:20.106Z,99601.38
2023-01-05T19:02:23.925Z,99606.69
2023-01-05T19:05:27.667Z,99600.13
2023-01-05T19:08:31.608Z,99604.19
2023-01-05T19:11:38.278Z,99608.34
2023-01-05T19:14:41.972Z,99608.78
2023-01-05T19:17:45.737Z,99618.75
2023-01-05T19:20:58.092Z,99626.88
2023-01-05T19:24:03.524Z,99629.19
2023-01-05T19:27:08.685Z,99628.66
2023-01-05T19:30:14.724Z,99628.44
2023-01-05T19:33:18.448Z,99629.06
2023-01-05T19:36:24.848Z,99634.13
2023-01-05T19:39:28.573Z,99638.25
2023-01-05T19:42:34.188Z,99635.69
2023-01-05T19:45:37.901Z,99631.81
2023-01-05T19:48:42.761Z,99645.19
2023-01-05T19:51:47.362Z,99640.09
2023-01-05T19:54:51.088Z,99646.22
2023-01-05T19:57:56.318Z,99649.56
2023-01-05T20:01:05.752Z,99649.19
2023-01-05T20:04:09.838Z,99641.41
2023-01-05T20:07:13.860Z,99647.06
2023-01-05T20:10:17.789Z,99646.72
2023-01-05T20:13:23.021Z,99647.00
2023-01-05T20:16:26.776Z,99656.28
2023-01-05T20:19:32.417Z,99660.44
2023-01-05T20:22:36.308Z,99656.38
2023-01-05T20:25:39.960Z,99657.56
2023-01-05T20:28:46.994Z,99653.81
2023-01-05T20:31:55.398Z,99648.16
2023-01-05T20:35:00.943Z,99637.94
2023-01-05T20:38:04.701Z,99638.59
2023-01-05T20:41:20.224Z,99639.25
2023-01-05T20:44:28.043Z,99651.16
2023-01-05T20:47:39.382Z,99656.25
2023-01-05T20:50:50.476Z,99658.63
2023-01-05T20:53:56.061Z,99669.06
2023-01-05T20:57:00.157Z,99661.72
2023-01-05T21:00:06.076Z,99689.41
2023-01-05T21:03:09.862Z,99684.63
2023-01-05T21:06:17.443Z,99689.25
2023-01-05T21:09:21.924Z,99689.34
2023-01-05T21:12:25.905Z,99681.72
2023-01-05T21:15:31.066Z,99695.53
2023-01-05T21:18:35.333Z,99691.53
2023-01-05T21:21:39.390Z,99690.44
2023-01-05T21:24:43.494Z,99689.16
2023-01-05T21:27:47.260Z,99692.03
2023-01-05T21:30:52.702Z,99684.03
2023-01-05T21:33:56.607Z,99687.47
2023-01-05T21:37:00.360Z,99687.25
2023-01-05T21:40:04.734Z,99694.94
2023-01-05T21:43:08.489Z,99692.97
2023-01-05T21:46:13.658Z,99685.75
2023-01-05T21:49:18.029Z,99689.97
2023-01-05T21:52:39.072Z,99684.63
2023-01-05T21:55:59.987Z,99696.78
2023-01-05T21:59:05.667Z,99695.47
2023-01-05T22:02:11.357Z,99693.81
2023-01-05T22:05:15.190Z,99697.59
2023-01-05T22:08:19.139Z,99710.03
2023-01-05T22:11:24.316Z,99697.94
2023-01-05T22:14:28.075Z,99702.63
2023-01-05T22:17:34.637Z,99708.41
2023-01-05T22:20:38.938Z,99706.06
2023-01-05T22:23:43.020Z,99696.56
2023-01-05T22:26:46.829Z,99698.03
2023-01-05T22:29:50.596Z,99701.72
2023-01-05T22:32:56.624Z,99698.94
2023-01-05T22:36:00.836Z,99696.84
2023-01-05T22:39:04.959Z,99704.03
2023-01-05T22:42:08.735Z,99707.59
2023-01-05T22:45:13.088Z,99714.69
2023-01-05T22:48:18.856Z,99702.38
2023-01-05T22:51:24.886Z,99701.09
2023-01-05T22:54:28.739Z,99702.38
2023-01-05T22:57:32.623Z,99713.69
2023-01-05T23:00:36.397Z,99718.38
2023-01-05T23:03:42.509Z,99715.03
2023-01-05T23:06:46.349Z,99715.34
2023-01-05T23:09:50.088Z,99719.88
2023-01-05T23:12:53.921Z,99714.28
2023-01-05T23:15:58.470Z,99730.56
2023-01-05T23:19:04.028Z,99736.66
2023-01-05T23:22:11.490Z,99740.63
2023-01-05T23:25:15.439Z,99736.03
2023-01-05T23:28:20.568Z,99743.06
2023-01-05T23:31:24.506Z,99746.72
2023-01-05T23:34:30.320Z,99748.22
2023-01-05T23:37:34.938Z,99756.13
2023-01-05T23:40:42.618Z,99758.69
2023-01-05T23:43:47.819Z,99758.00
2023-01-05T23:46:51.545Z,99766.41
2023-01-05T23:49:56.861Z,99766.78
2023-01-05T23:53:00.706Z,99768.25
2023-01-05T23:56:09.443Z,99771.63
2023-01-05T23:59:14.458Z,99767.34
